Time;durP1;ratioP1;P1;durP2;ratioP2;P2;SDS_P1;SDS_P2;PMS_P1;PMS_P2;Temp;Humidity;BMP_temperature;BMP_pressure;BME280_temperature;BME280_humidity;BME280_pressure;Samples;Min_cycle;Max_cycle;Signal;HPM_P1;HPM_P2
2024/04/06 00:01:07;;;;;;;0.77;0.75;;;;;;;12.09;43.09;94366.97;5071716;28;20024;-73
2024/04/06 00:03:32;;;;;;;5.18;1.25;;;;;;;12.17;42.96;94370.78;5071158;28;20494;-73
2024/04/06 00:05:58;;;;;;;1.77;1.00;;;;;;;12.18;43.09;94353.66;5071372;28;20043;-72
2024/04/06 00:08:23;;;;;;;1.27;1.00;;;;;;;12.15;42.59;94355.06;5070500;28;20538;-73
2024/04/06 00:10:48;;;;;;;1.25;0.52;;;;;;;12.12;42.93;94361.03;5070716;28;20043;-73
2024/04/06 00:13:14;;;;;;;1.65;0.90;;;;;;;12.07;43.16;94358.50;5070743;28;20028;-72
2024/04/06 00:15:39;;;;;;;1.92;0.60;;;;;;;12.05;43.32;94352.69;5071169;28;20358;-72
2024/04/06 00:18:04;;;;;;;1.92;0.85;;;;;;;11.92;43.57;94356.25;5070966;28;20032;-73
2024/04/06 00:20:31;;;;;;;1.77;0.80;;;;;;;11.87;43.63;94345.72;5070818;28;20063;-73
2024/04/06 00:22:56;;;;;;;1.63;0.75;;;;;;;11.94;43.30;94362.84;5070045;28;20566;-72
2024/04/06 00:25:21;;;;;;;1.77;0.80;;;;;;;11.39;44.82;94353.63;5070816;28;20029;-72
2024/04/06 00:27:47;;;;;;;1.45;0.70;;;;;;;11.72;43.91;94364.78;5071507;28;20024;-72
2024/04/06 00:30:12;;;;;;;2.33;0.88;;;;;;;11.80;44.25;94356.03;5071336;28;20037;-72
2024/04/06 00:32:37;;;;;;;0.95;0.80;;;;;;;11.82;44.13;94365.31;5070722;28;20085;-72
2024/04/06 00:35:03;;;;;;;1.33;0.60;;;;;;;10.76;46.10;94359.88;5070646;28;20039;-73
2024/04/06 00:37:29;;;;;;;5.60;1.05;;;;;;;11.01;46.05;94353.97;5071008;28;20509;-72
2024/04/06 00:39:54;;;;;;;1.13;0.80;;;;;;;11.34;45.20;94351.06;5071553;28;20429;-72
2024/04/06 00:42:19;;;;;;;2.30;1.08;;;;;;;11.48;44.70;94357.13;5070679;28;20447;-73
2024/04/06 00:44:45;;;;;;;3.00;0.93;;;;;;;11.44;44.98;94354.25;5070867;28;20028;-73
2024/04/06 00:47:10;;;;;;;3.92;1.40;;;;;;;11.46;44.85;94356.63;5070672;28;20078;-73
2024/04/06 00:49:36;;;;;;;1.50;0.98;;;;;;;11.40;45.24;94363.16;5071065;28;20055;-73
2024/04/06 00:52:01;;;;;;;1.08;0.93;;;;;;;11.50;45.16;94368.22;5071410;28;20366;-73
2024/04/06 00:54:27;;;;;;;1.33;0.90;;;;;;;11.60;44.98;94360.00;5069434;28;20042;-73
2024/04/06 00:56:53;;;;;;;2.72;0.77;;;;;;;11.64;44.90;94357.53;5070561;28;20090;-73
2024/04/06 00:59:19;;;;;;;0.90;0.88;;;;;;;11.53;44.92;94349.81;5070276;28;20051;-73
2024/04/06 01:01:45;;;;;;;2.17;0.88;;;;;;;11.50;45.07;94352.25;5070625;28;20048;-73
2024/04/06 01:04:10;;;;;;;1.98;0.90;;;;;;;11.53;45.02;94349.81;5071402;28;20492;-73
2024/04/06 01:06:36;;;;;;;2.92;0.82;;;;;;;11.49;45.14;94346.13;5070588;28;20061;-73
2024/04/06 01:09:03;;;;;;;1.63;0.80;;;;;;;11.50;45.16;94344.25;5070667;28;20056;-73
2024/04/06 01:11:28;;;;;;;0.90;0.80;;;;;;;11.62;44.66;94338.41;5070649;28;20521;-73
2024/04/06 01:13:54;;;;;;;1.48;1.10;;;;;;;11.56;45.13;94343.84;5070438;28;20123;-73
2024/04/06 01:16:19;;;;;;;1.65;0.90;;;;;;;11.57;44.69;94336.66;5070812;28;20060;-72
2024/04/06 01:18:44;;;;;;;1.95;1.00;;;;;;;11.42;45.18;94350.34;5070661;28;20488;-73
2024/04/06 01:21:10;;;;;;;2.28;0.90;;;;;;;11.25;45.92;94356.31;5069539;28;20039;-73
2024/04/06 01:23:36;;;;;;;3.10;0.88;;;;;;;11.41;45.31;94344.22;5070303;28;20697;-73
2024/04/06 01:26:01;;;;;;;2.92;1.08;;;;;;;11.49;45.33;94351.47;5070484;28;20569;-73
2024/04/06 01:28:27;;;;;;;3.25;0.80;;;;;;;11.37;45.53;94356.56;5070250;28;20028;-73
2024/04/06 01:30:53;;;;;;;3.58;0.93;;;;;;;11.36;45.92;94352.34;5070755;28;20043;-73
2024/04/06 01:33:18;;;;;;;2.08;0.90;;;;;;;11.33;45.83;94347.63;5071965;28;20063;-73
2024/04/06 01:35:43;;;;;;;1.00;0.90;;;;;;;11.27;45.92;94351.50;5074005;28;20489;-73
2024/04/06 01:38:09;;;;;;;1.65;0.90;;;;;;;11.17;46.22;94344.53;5073746;28;20032;-73
2024/04/06 01:40:34;;;;;;;1.52;0.90;;;;;;;11.06;46.26;94345.88;5074150;28;20039;-73
2024/04/06 01:42:59;;;;;;;1.80;0.85;;;;;;;11.12;46.22;94331.34;5074527;28;20513;-73
2024/04/06 01:45:25;;;;;;;2.55;0.98;;;;;;;11.06;46.23;94321.91;5073346;28;20032;-73
2024/04/06 01:47:50;;;;;;;2.10;0.80;;;;;;;11.09;46.30;94337.28;5073280;28;20039;-73
2024/04/06 01:50:17;;;;;;;4.82;0.90;;;;;;;11.11;45.90;94329.78;5074104;28;20532;-73
2024/04/06 01:52:42;;;;;;;1.63;0.73;;;;;;;11.09;46.25;94328.53;5073712;28;20072;-73
2024/04/06 01:55:07;;;;;;;2.80;0.80;;;;;;;10.98;46.60;94335.16;5074625;28;20060;-73
2024/04/06 01:57:33;;;;;;;1.33;1.02;;;;;;;10.64;47.45;94341.00;5073561;28;20532;-73
2024/04/06 01:59:58;;;;;;;1.00;0.80;;;;;;;10.85;47.01;94342.13;5073630;28;20064;-73
2024/04/06 02:02:24;;;;;;;1.77;0.90;;;;;;;10.94;46.92;94347.50;5073610;28;20043;-73
2024/04/06 02:04:49;;;;;;;1.63;0.80;;;;;;;11.14;46.67;94345.16;5073635;28;20043;-73
2024/04/06 02:07:16;;;;;;;1.60;1.00;;;;;;;11.07;46.20;94330.69;5073649;28;20074;-73
2024/04/06 02:09:41;;;;;;;1.30;0.90;;;;;;;11.18;45.91;94332.81;5073619;28;20481;-73
2024/04/06 02:12:08;;;;;;;1.98;0.85;;;;;;;11.08;46.24;94327.72;5073362;28;20040;-73
2024/04/06 02:14:33;;;;;;;2.08;1.00;;;;;;;11.16;46.15;94342.97;5073383;28;20060;-73
2024/04/06 02:17:03;;;;;;;3.38;1.10;;;;;;;11.14;45.83;94323.88;5073296;28;20474;-73
2024/04/06 02:19:28;;;;;;;2.97;1.00;;;;;;;11.06;46.49;94331.78;5073243;28;20044;-73
2024/04/06 02:21:53;;;;;;;2.60;1.10;;;;;;;10.87;47.08;94331.94;5073610;28;20418;-73
2024/04/06 02:24:20;;;;;;;0.98;0.90;;;;;;;10.69;47.70;94323.06;5073153;28;20036;-73
2024/04/06 02:26:45;;;;;;;2.15;0.95;;;;;;;10.58;47.63;94315.59;5072941;28;20082;-74
2024/04/06 02:29:10;;;;;;;1.38;0.80;;;;;;;10.64;47.84;94330.38;5072617;28;20411;-71
2024/04/06 02:31:36;;;;;;;1.10;0.90;;;;;;;10.76;47.70;94337.81;5072609;28;20068;-73
2024/04/06 02:34:02;;;;;;;2.60;1.05;;;;;;;10.85;47.32;94344.00;5073023;28;20025;-73
2024/04/06 02:36:27;;;;;;;1.58;0.88;;;;;;;10.81;47.23;94338.47;5071418;28;20033;-73
2024/04/06 02:38:52;;;;;;;3.40;1.25;;;;;;;10.68;47.22;94342.75;5071175;28;20029;-73
2024/04/06 02:41:18;;;;;;;4.30;1.15;;;;;;;10.77;47.05;94340.16;5071490;28;20037;-73
2024/04/06 02:43:43;;;;;;;4.13;1.05;;;;;;;10.70;47.58;94343.25;5071223;28;20039;-73
2024/04/06 02:46:08;;;;;;;2.70;1.10;;;;;;;10.59;47.73;94343.78;5071589;28;20033;-73
2024/04/06 02:48:34;;;;;;;2.50;1.23;;;;;;;10.47;47.91;94340.84;5071569;28;20401;-73
2024/04/06 02:50:59;;;;;;;1.83;1.25;;;;;;;10.45;48.19;94343.03;5072332;28;20040;-73
2024/04/06 02:53:24;;;;;;;7.95;1.40;;;;;;;10.38;48.13;94342.63;5072644;28;20036;-73
2024/04/06 02:55:50;;;;;;;3.78;1.50;;;;;;;10.42;48.04;94338.28;5072665;28;20493;-73
2024/04/06 02:58:15;;;;;;;2.58;0.90;;;;;;;10.54;47.79;94335.91;5072439;28;20072;-73
2024/04/06 03:00:41;;;;;;;1.38;0.90;;;;;;;10.45;48.03;94337.72;5073151;28;20074;-73
2024/04/06 03:03:06;;;;;;;2.80;1.10;;;;;;;10.53;47.81;94326.34;5072385;28;20545;-73
2024/04/06 03:05:31;;;;;;;4.25;1.60;;;;;;;10.49;48.28;94328.03;5072362;28;20059;-73
2024/04/06 03:07:57;;;;;;;4.70;1.65;;;;;;;10.40;47.84;94330.63;5072378;28;20695;-73
2024/04/06 03:10:23;;;;;;;2.50;1.48;;;;;;;10.35;48.26;94325.38;5072379;28;20055;-73
2024/04/06 03:12:48;;;;;;;4.80;1.50;;;;;;;10.23;48.51;94319.78;5072505;28;20024;-73
2024/04/06 03:15:14;;;;;;;2.47;1.52;;;;;;;9.77;49.58;94317.28;5072176;28;20036;-73
2024/04/06 03:17:39;;;;;;;3.13;1.50;;;;;;;9.96;49.21;94315.31;5072181;28;20033;-73
2024/04/06 03:20:05;;;;;;;4.45;1.40;;;;;;;9.74;50.19;94323.16;5072030;28;20036;-73
2024/04/06 03:22:31;;;;;;;3.88;1.60;;;;;;;9.89;49.32;94313.03;5071990;28;20017;-73
2024/04/06 03:24:57;;;;;;;2.80;1.23;;;;;;;9.97;49.03;94319.53;5072308;28;20096;-73
2024/04/06 03:27:23;;;;;;;6.93;1.90;;;;;;;9.87;49.20;94304.59;5071881;28;20036;-73
2024/04/06 03:29:48;;;;;;;3.05;1.80;;;;;;;10.01;49.14;94327.69;5071695;28;20044;-73
2024/04/06 03:32:14;;;;;;;3.67;1.77;;;;;;;9.87;49.22;94325.06;5072102;28;20502;-72
2024/04/06 03:34:40;;;;;;;2.35;1.55;;;;;;;9.90;49.23;94332.41;5072254;28;20038;-73
2024/04/06 03:37:06;;;;;;;2.00;1.30;;;;;;;9.96;49.19;94325.13;5072145;28;20020;-73
2024/04/06 03:39:31;;;;;;;5.20;1.52;;;;;;;10.02;49.06;94335.38;5071730;28;20032;-73
2024/04/06 03:41:56;;;;;;;5.28;1.80;;;;;;;9.91;48.76;94328.69;5071559;28;20024;-73
2024/04/06 03:44:22;;;;;;;4.93;1.85;;;;;;;9.22;50.60;94343.75;5071328;28;20463;-73
2024/04/06 03:46:47;;;;;;;4.50;2.78;;;;;;;9.42;50.63;94337.31;5071493;28;20037;-73
2024/04/06 03:49:12;;;;;;;7.05;3.33;;;;;;;9.79;49.81;94341.66;5071805;28;20028;-72
2024/04/06 03:51:38;;;;;;;3.92;1.50;;;;;;;9.92;49.46;94334.78;5072167;28;20045;-73
2024/04/06 03:54:03;;;;;;;5.82;1.58;;;;;;;9.99;49.31;94330.63;5071425;28;20623;-73
2024/04/06 03:56:28;;;;;;;2.58;1.30;;;;;;;10.04;49.25;94324.44;5071544;28;20040;-73
2024/04/06 03:58:54;;;;;;;3.22;1.77;;;;;;;10.05;48.87;94329.47;5070884;28;20040;-73
2024/04/06 04:01:19;;;;;;;4.30;1.80;;;;;;;10.02;49.21;94322.09;5071303;28;20023;-73
2024/04/06 04:03:45;;;;;;;2.53;1.40;;;;;;;10.07;49.20;94335.28;5072178;28;20028;-73
2024/04/06 04:06:10;;;;;;;4.05;1.70;;;;;;;10.17;48.89;94336.94;5071446;28;20565;-73
2024/04/06 04:08:35;;;;;;;2.88;1.20;;;;;;;10.12;49.05;94327.19;5071521;28;20409;-73
2024/04/06 04:11:01;;;;;;;8.25;1.80;;;;;;;10.09;49.06;94335.75;5071413;28;20505;-73
2024/04/06 04:13:26;;;;;;;2.97;1.33;;;;;;;10.13;49.43;94341.25;5070983;28;20028;-73
2024/04/06 04:15:53;;;;;;;3.80;1.90;;;;;;;10.10;49.29;94332.03;5071680;28;20024;-73
2024/04/06 04:18:19;;;;;;;1.90;1.38;;;;;;;10.06;49.56;94340.88;5071022;28;20177;-73
2024/04/06 04:20:44;;;;;;;3.28;1.83;;;;;;;10.07;49.64;94347.78;5071220;28;20468;-73
2024/04/06 04:23:10;;;;;;;4.18;2.40;;;;;;;9.74;50.17;94344.41;5071475;28;20032;-73
2024/04/06 04:25:36;;;;;;;4.45;2.40;;;;;;;10.17;49.25;94348.34;5071365;28;20040;-73
2024/04/06 04:28:01;;;;;;;4.97;2.63;;;;;;;10.41;48.64;94350.03;5071927;28;20493;-73
2024/04/06 04:30:27;;;;;;;9.40;3.10;;;;;;;10.51;48.49;94358.59;5070719;28;20035;-73
2024/04/06 04:32:53;;;;;;;7.72;3.95;;;;;;;10.69;48.10;94354.97;5070528;28;20041;-73
2024/04/06 04:35:19;;;;;;;6.00;2.95;;;;;;;10.80;48.31;94358.22;5071242;28;20036;-73
2024/04/06 04:37:45;;;;;;;4.22;2.97;;;;;;;10.78;47.70;94339.09;5070755;28;20040;-73
2024/04/06 04:40:11;;;;;;;4.93;2.45;;;;;;;10.88;47.79;94354.81;5071248;28;20543;-73
2024/04/06 04:42:36;;;;;;;4.55;2.30;;;;;;;10.99;47.67;94358.81;5070771;28;20506;-73
2024/04/06 04:45:11;;;;;;;4.20;1.83;;;;;;;11.03;47.92;94343.03;5070960;28;20041;-73
2024/04/06 04:47:37;;;;;;;4.60;3.08;;;;;;;11.24;47.20;94360.09;5071220;28;20086;-73
2024/04/06 04:50:03;;;;;;;6.65;1.85;;;;;;;11.31;47.52;94370.31;5070696;28;20032;-73
2024/04/06 04:52:29;;;;;;;7.15;3.08;;;;;;;11.37;47.01;94369.09;5071389;28;20067;-73
2024/04/06 04:54:54;;;;;;;6.75;3.60;;;;;;;11.41;47.12;94376.19;5071158;28;20528;-73
2024/04/06 04:57:20;;;;;;;10.00;3.75;;;;;;;11.45;46.84;94371.00;5070502;28;20523;-73
2024/04/06 04:59:45;;;;;;;9.13;3.78;;;;;;;11.57;46.69;94380.06;5071063;28;20097;-73
2024/04/06 05:02:11;;;;;;;7.28;3.10;;;;;;;11.72;45.97;94370.91;5070657;28;20036;-73
2024/04/06 05:04:36;;;;;;;14.57;4.40;;;;;;;11.60;46.44;94373.34;5071098;28;20036;-73
2024/04/06 05:07:02;;;;;;;10.73;4.10;;;;;;;11.86;46.47;94371.59;5070631;28;20110;-73
2024/04/06 05:09:27;;;;;;;11.32;3.97;;;;;;;11.91;46.38;94368.78;5074776;28;20106;-73
2024/04/06 05:11:52;;;;;;;9.02;3.53;;;;;;;11.81;46.46;94369.06;5074467;28;20493;-73
2024/04/06 05:14:18;;;;;;;5.50;2.90;;;;;;;11.66;47.01;94371.31;5074028;28;20044;-73
2024/04/06 05:16:45;;;;;;;8.10;4.10;;;;;;;11.98;46.48;94382.44;5074408;28;20047;-73
2024/04/06 05:19:11;;;;;;;7.60;4.22;;;;;;;11.89;46.04;94381.63;5074965;28;20028;-73
2024/04/06 05:21:36;;;;;;;7.82;3.55;;;;;;;11.92;45.88;94394.34;5074318;28;20045;-73
2024/04/06 05:24:03;;;;;;;11.70;3.60;;;;;;;11.54;45.96;94391.31;5074202;28;20035;-73
2024/04/06 05:26:28;;;;;;;7.63;4.03;;;;;;;11.90;45.76;94391.19;5073845;28;20047;-73
2024/04/06 05:28:53;;;;;;;4.97;3.05;;;;;;;12.30;45.20;94381.31;5074532;28;20030;-73
2024/04/06 05:31:19;;;;;;;6.60;3.90;;;;;;;12.40;44.36;94361.56;5074305;28;20100;-73
2024/04/06 05:33:44;;;;;;;6.57;4.15;;;;;;;12.65;44.62;94376.88;5074541;28;20495;-73
2024/04/06 05:36:10;;;;;;;7.82;3.75;;;;;;;12.61;44.32;94377.81;5074071;28;20037;-73
2024/04/06 05:38:35;;;;;;;11.88;4.47;;;;;;;12.87;44.08;94374.06;5073988;28;20032;-73
2024/04/06 05:41:00;;;;;;;12.13;5.28;;;;;;;12.38;45.29;94369.88;5074011;28;20036;-73
2024/04/06 05:43:26;;;;;;;17.77;5.68;;;;;;;12.46;44.79;94363.00;5073859;28;20385;-73
2024/04/06 05:46:02;;;;;;;15.20;5.70;;;;;;;12.33;45.89;94364.69;5074299;28;20473;-73
2024/04/06 05:48:28;;;;;;;25.70;8.20;;;;;;;12.77;45.34;94369.03;5073515;28;20029;-73
2024/04/06 05:50:54;;;;;;;8.63;5.10;;;;;;;13.06;44.72;94370.28;5073625;28;20040;-73
2024/04/06 05:53:19;;;;;;;15.05;6.15;;;;;;;13.27;44.50;94355.19;5073418;28;20044;-74
2024/04/06 05:55:45;;;;;;;11.57;5.57;;;;;;;13.49;43.84;94357.69;5073384;28;20401;-74
2024/04/06 05:58:11;;;;;;;15.82;5.10;;;;;;;13.50;42.94;94369.13;5073811;28;20059;-74
2024/04/06 06:00:36;;;;;;;12.30;5.82;;;;;;;13.50;43.79;94369.94;5073340;28;20045;-74
2024/04/06 06:03:02;;;;;;;14.05;6.53;;;;;;;13.38;44.11;94371.69;5073537;28;20047;-74
2024/04/06 06:05:27;;;;;;;14.10;6.00;;;;;;;13.69;43.06;94362.38;5073207;28;20446;-74
2024/04/06 06:07:53;;;;;;;15.65;5.85;;;;;;;13.81;43.20;94364.38;5073433;28;20049;-72
2024/04/06 06:10:18;;;;;;;12.85;6.13;;;;;;;14.06;42.48;94370.75;5073369;28;20551;-71
2024/04/06 06:12:44;;;;;;;19.38;6.53;;;;;;;13.95;43.62;94370.31;5073412;28;20087;-74
2024/04/06 06:15:09;;;;;;;12.13;5.10;;;;;;;14.29;42.86;94368.59;5073696;28;20034;-74
2024/04/06 06:17:35;;;;;;;15.05;5.47;;;;;;;14.23;42.16;94370.66;5073506;28;20043;-74
2024/04/06 06:20:01;;;;;;;9.40;6.03;;;;;;;13.99;42.61;94357.88;5072272;28;20085;-74
2024/04/06 06:22:29;;;;;;;11.65;5.82;;;;;;;14.25;41.68;94370.34;5072117;28;20090;-73
2024/04/06 06:24:56;;;;;;;11.20;4.72;;;;;;;14.24;41.08;94368.78;5073392;28;20389;-73
2024/04/06 06:27:21;;;;;;;9.63;3.38;;;;;;;14.03;40.95;94376.75;5072726;28;20033;-73
2024/04/06 06:29:47;;;;;;;9.77;3.90;;;;;;;14.28;40.35;94378.50;5072426;28;20064;-73
2024/04/06 06:32:12;;;;;;;13.18;3.95;;;;;;;14.29;41.10;94380.09;5072324;28;20040;-73
2024/04/06 06:34:37;;;;;;;10.63;3.83;;;;;;;14.48;40.33;94377.78;5071359;28;20414;-72
2024/04/06 06:37:03;;;;;;;8.52;3.72;;;;;;;14.48;40.31;94383.13;5073269;28;20020;-72
2024/04/06 06:39:29;;;;;;;11.13;4.35;;;;;;;14.42;40.04;94363.00;5072228;28;20570;-73
2024/04/06 06:41:55;;;;;;;13.55;4.63;;;;;;;13.78;41.66;94380.28;5072270;28;20033;-72
2024/04/06 06:44:20;;;;;;;10.98;4.00;;;;;;;14.45;40.48;94378.44;5072324;28;20490;-73
2024/04/06 06:46:46;;;;;;;14.25;4.13;;;;;;;14.90;39.75;94377.88;5071376;28;20058;-75
2024/04/06 06:49:12;;;;;;;13.13;5.97;;;;;;;14.77;39.98;94385.03;5072143;28;20104;-75
2024/04/06 06:51:38;;;;;;;13.82;5.35;;;;;;;14.75;40.29;94386.47;5072043;28;20044;-74
2024/04/06 06:54:05;;;;;;;14.18;6.72;;;;;;;14.86;40.99;94398.38;5070695;28;20455;-74
2024/04/06 06:56:31;;;;;;;12.98;6.13;;;;;;;15.01;39.86;94400.47;5070555;28;20041;-74
2024/04/06 06:58:58;;;;;;;10.40;4.85;;;;;;;14.90;40.53;94393.94;5072210;28;20094;-75
2024/04/06 07:01:24;;;;;;;20.45;5.30;;;;;;;14.43;41.50;94396.69;5071244;28;20362;-74
2024/04/06 07:03:50;;;;;;;18.95;6.93;;;;;;;15.01;41.21;94400.47;5071321;28;20028;-74
2024/04/06 07:06:15;;;;;;;17.40;5.93;;;;;;;14.80;40.64;94402.34;5072348;28;20090;-73
2024/04/06 07:08:47;;;;;;;14.13;6.15;;;;;;;14.29;41.62;94393.47;5071906;28;20472;-73
2024/04/06 07:11:12;;;;;;;11.20;6.20;;;;;;;14.98;41.21;94393.88;5071776;28;20044;-73
2024/04/06 07:13:39;;;;;;;8.38;5.68;;;;;;;15.13;40.44;94394.41;5071536;28;20040;-73
2024/04/06 07:16:06;;;;;;;17.50;6.72;;;;;;;15.24;41.00;94400.94;5072322;28;20035;-74
2024/04/06 07:18:33;;;;;;;14.70;6.97;;;;;;;15.52;39.99;94403.88;5077220;28;20290;-75
2024/04/06 07:20:59;;;;;;;11.93;5.43;;;;;;;15.75;39.58;94397.81;5070238;28;20063;-74
2024/04/06 07:23:24;;;;;;;16.10;6.20;;;;;;;15.79;39.32;94398.69;5069850;28;20036;-75
2024/04/06 07:25:50;;;;;;;14.95;6.57;;;;;;;15.74;39.02;94398.16;5071144;28;20409;-74
2024/04/06 07:28:16;;;;;;;21.30;5.95;;;;;;;15.52;39.20;94419.97;5071124;28;20035;-74
2024/04/06 07:30:45;;;;;;;14.02;6.38;;;;;;;15.72;39.11;94403.06;5071293;28;20025;-74
2024/04/06 07:33:11;;;;;;;35.83;24.98;;;;;;;15.79;39.14;94408.66;5071258;28;20078;-74
2024/04/06 07:35:37;;;;;;;12.95;6.88;;;;;;;15.42;39.57;94416.53;5071102;28;20063;-74
2024/04/06 07:38:02;;;;;;;23.10;10.77;;;;;;;15.53;39.88;94405.44;5071231;28;20036;-74
2024/04/06 07:40:27;;;;;;;15.45;6.85;;;;;;;15.95;39.19;94403.44;5070794;28;20031;-73
2024/04/06 07:42:56;;;;;;;17.95;6.43;;;;;;;15.62;39.86;94395.41;5071751;28;20017;-74
2024/04/06 07:45:21;;;;;;;15.43;6.35;;;;;;;15.88;39.12;94396.75;5071298;28;20032;-74
2024/04/06 07:47:46;;;;;;;12.05;6.25;;;;;;;16.04;38.95;94398.75;5071036;28;20032;-74
2024/04/06 07:50:12;;;;;;;17.30;6.95;;;;;;;15.46;39.25;94390.66;5069983;28;20032;-74
2024/04/06 07:52:38;;;;;;;18.58;9.55;;;;;;;15.70;39.15;94391.84;5070955;28;20723;-73
2024/04/06 07:55:04;;;;;;;17.75;7.20;;;;;;;15.55;39.45;94381.78;5071369;28;20028;-74
2024/04/06 07:57:29;;;;;;;9.50;5.55;;;;;;;15.94;39.37;94391.91;5070673;28;20056;-73
2024/04/06 07:59:58;;;;;;;19.38;5.22;;;;;;;15.79;38.97;94397.94;5070871;28;20484;-72
2024/04/06 08:02:23;;;;;;;19.88;5.93;;;;;;;15.94;38.90;94389.22;5070741;28;20553;-72
2024/04/06 08:04:50;;;;;;;16.42;8.00;;;;;;;15.97;39.49;94393.97;5069504;28;20040;-73
2024/04/06 08:07:16;;;;;;;12.18;5.85;;;;;;;16.10;39.55;94395.53;5071834;28;20021;-76
2024/04/06 08:09:42;;;;;;;15.63;7.75;;;;;;;16.12;38.75;94392.53;5070905;28;20022;-71
2024/04/06 08:12:08;;;;;;;15.05;7.80;;;;;;;16.30;39.08;94393.88;5070157;28;20436;-73
2024/04/06 08:14:34;;;;;;;26.17;11.75;;;;;;;16.29;38.12;94398.47;5069390;28;20036;-72
2024/04/06 08:17:00;;;;;;;16.92;8.48;;;;;;;16.44;38.37;94390.88;5068158;28;20086;-73
2024/04/06 08:19:25;;;;;;;15.77;6.25;;;;;;;16.56;38.11;94374.78;5068237;28;20017;-73
2024/04/06 08:21:50;;;;;;;22.85;6.40;;;;;;;16.82;37.56;94387.88;5068728;28;20470;-73
2024/04/06 08:24:19;;;;;;;15.10;5.40;;;;;;;16.89;37.35;94388.84;5068401;28;20037;-72
2024/04/06 08:26:45;;;;;;;19.73;6.38;;;;;;;16.76;37.21;94387.31;5068296;28;20028;-73
2024/04/06 08:29:12;;;;;;;11.73;6.35;;;;;;;16.97;36.97;94384.44;5067957;28;20047;-73
2024/04/06 08:31:37;;;;;;;11.73;4.57;;;;;;;17.15;36.43;94378.53;5066668;28;20043;-72
2024/04/06 08:34:03;;;;;;;15.63;4.90;;;;;;;17.36;36.82;94382.91;5068498;28;20028;-73
2024/04/06 08:36:29;;;;;;;14.70;6.32;;;;;;;17.50;37.24;94383.34;5067855;28;20060;-72
2024/04/06 08:38:54;;;;;;;11.40;4.90;;;;;;;17.47;35.93;94374.03;5067965;28;20638;-72
2024/04/06 08:41:23;;;;;;;13.35;5.72;;;;;;;17.44;36.66;94380.09;5068126;28;20040;-72
2024/04/06 08:43:54;;;;;;;73.25;52.92;;;;;;;17.48;36.67;94374.81;5069305;28;20036;-72
2024/04/06 08:46:22;;;;;;;10.73;4.78;;;;;;;17.38;35.57;94375.31;5073648;28;20103;-73
2024/04/06 08:48:49;;;;;;;11.77;3.80;;;;;;;17.60;34.98;94382.81;5074242;28;20091;-73
2024/04/06 08:51:16;;;;;;;9.60;4.45;;;;;;;17.52;36.09;94376.47;5073744;28;20105;-73
2024/04/06 08:53:42;;;;;;;8.73;4.63;;;;;;;17.38;35.40;94359.19;5074351;28;20041;-73
2024/04/06 08:56:08;;;;;;;9.82;4.00;;;;;;;17.45;36.05;94378.97;5074389;28;20484;-73
2024/04/06 08:58:35;;;;;;;12.90;4.07;;;;;;;17.56;35.80;94374.66;5074258;28;20049;-73
2024/04/06 09:01:02;;;;;;;11.05;5.15;;;;;;;17.75;35.32;94379.38;5074687;28;20025;-73
2024/04/06 09:03:31;;;;;;;12.30;6.57;;;;;;;17.87;34.55;94381.25;5073896;28;20256;-72
2024/04/06 09:05:57;;;;;;;10.15;5.22;;;;;;;17.79;35.20;94380.28;5072931;28;20049;-73
2024/04/06 09:08:23;;;;;;;8.65;4.65;;;;;;;17.95;34.01;94378.41;5073814;28;20052;-73
2024/04/06 09:10:54;;;;;;;13.27;4.60;;;;;;;17.80;34.52;94376.44;5073977;28;20063;-72
2024/04/06 09:13:20;;;;;;;10.73;3.70;;;;;;;17.89;35.26;94369.00;5074193;28;20044;-73
2024/04/06 09:15:46;;;;;;;9.82;4.15;;;;;;;17.27;35.57;94371.53;5073730;28;20021;-73
2024/04/06 09:18:12;;;;;;;9.93;3.50;;;;;;;17.54;36.07;94370.75;5080443;28;20043;-73
2024/04/06 09:20:37;;;;;;;7.13;3.22;;;;;;;17.88;35.34;94372.06;5074410;28;20559;-72
2024/04/06 09:23:03;;;;;;;10.70;4.60;;;;;;;17.94;34.72;94370.72;5074615;28;20033;-72
2024/04/06 09:25:28;;;;;;;8.57;3.80;;;;;;;18.18;34.19;94365.16;5066344;28;20032;-73
2024/04/06 09:27:54;;;;;;;9.60;2.28;;;;;;;18.08;33.38;94367.59;5088333;28;20043;-73
2024/04/06 09:30:29;;;;;;;3.50;1.73;;;;;;;17.91;33.41;94364.06;5074600;28;20115;-71
2024/04/06 09:32:55;;;;;;;4.95;1.77;;;;;;;17.93;33.36;94369.91;5074268;28;20044;-72
2024/04/06 09:35:21;;;;;;;8.23;1.83;;;;;;;17.84;33.56;94355.81;5074523;28;20056;-71
2024/04/06 09:37:50;;;;;;;6.35;1.77;;;;;;;18.03;32.42;94353.25;5074691;28;20532;-72
2024/04/06 09:40:16;;;;;;;7.25;2.17;;;;;;;18.28;32.35;94361.16;5074517;28;20032;-71
2024/04/06 09:42:42;;;;;;;4.30;1.70;;;;;;;18.37;32.71;94351.00;5074965;28;20020;-71
2024/04/06 09:45:08;;;;;;;8.73;1.40;;;;;;;18.44;32.39;94354.63;5074201;28;20386;-71
2024/04/06 09:47:35;;;;;;;5.05;1.67;;;;;;;18.78;31.46;94345.03;5074089;28;20035;-71
2024/04/06 09:50:00;;;;;;;2.53;1.42;;;;;;;18.88;30.95;94339.09;5074094;28;20044;-71
2024/04/06 09:52:27;;;;;;;4.53;1.23;;;;;;;18.88;30.51;94322.91;5073959;28;20016;-71
2024/04/06 09:54:54;;;;;;;3.33;1.00;;;;;;;19.04;30.11;94322.09;5074474;28;20028;-71
2024/04/06 09:57:21;;;;;;;1.42;1.00;;;;;;;19.04;30.77;94308.59;5073477;28;20076;-71
2024/04/06 09:59:47;;;;;;;4.50;1.38;;;;;;;18.83;31.22;94314.31;5074293;28;20394;-71
2024/04/06 10:02:33;;;;;;;2.65;1.00;;;;;;;18.72;30.50;94297.19;5073763;28;20029;-72
2024/04/06 10:05:01;;;;;;;5.57;0.90;;;;;;;18.96;30.90;94301.53;5073886;28;20040;-72
2024/04/06 10:07:28;;;;;;;6.82;1.48;;;;;;;18.61;29.75;94298.81;5073954;28;20103;-71
2024/04/06 10:10:05;;;;;;;4.43;2.17;;;;;;;18.78;30.79;94293.84;5074620;28;20096;-71
2024/04/06 10:12:41;;;;;;;5.72;2.45;;;;;;;19.01;30.12;94274.28;5073446;28;20028;-71
2024/04/06 10:15:11;;;;;;;7.03;1.50;;;;;;;19.05;30.42;94294.00;5073722;28;20037;-72
2024/04/06 10:17:51;;;;;;;3.58;1.42;;;;;;;19.09;30.89;94284.06;5073680;28;20193;-71
2024/04/06 10:20:18;;;;;;;4.32;1.30;;;;;;;19.37;29.30;94290.00;5073795;28;20413;-71
2024/04/06 10:22:55;;;;;;;2.63;1.40;;;;;;;19.32;29.87;94284.91;5073412;28;20117;-72
2024/04/06 10:25:32;;;;;;;4.55;0.95;;;;;;;19.08;28.76;94285.19;5073408;28;20027;-71
2024/04/06 10:28:10;;;;;;;2.45;0.85;;;;;;;19.28;28.86;94286.75;5074091;28;20020;-71
2024/04/06 10:30:39;;;;;;;3.03;0.80;;;;;;;19.34;28.46;94279.94;5073587;28;20059;-71
2024/04/06 10:33:06;;;;;;;1.70;0.77;;;;;;;19.45;28.39;94290.97;5073060;28;20505;-72
2024/04/06 10:35:32;;;;;;;0.77;0.70;;;;;;;19.50;28.26;94277.97;5073406;28;20040;-72
2024/04/06 10:37:57;;;;;;;1.65;0.80;;;;;;;19.56;28.28;94264.94;5073540;28;20043;-71
2024/04/06 10:40:27;;;;;;;6.07;2.05;;;;;;;19.59;30.03;94259.63;5073179;28;20497;-71
2024/04/06 10:42:54;;;;;;;4.07;0.80;;;;;;;19.54;27.57;94251.81;5073477;28;20095;-72
2024/04/06 10:45:19;;;;;;;2.00;1.13;;;;;;;19.52;27.91;94256.78;5073111;28;20299;-71
2024/04/06 10:47:45;;;;;;;4.70;1.40;;;;;;;19.56;29.01;94260.31;5073208;28;20410;-71
2024/04/06 10:50:13;;;;;;;3.67;0.95;;;;;;;19.53;29.21;94260.25;5073178;28;20036;-71
2024/04/06 10:52:40;;;;;;;3.88;1.05;;;;;;;19.20;29.00;94250.00;5072905;28;20044;-71
2024/04/06 10:55:09;;;;;;;7.20;1.92;;;;;;;19.22;30.62;94242.31;5073825;28;20028;-71
2024/04/06 10:57:38;;;;;;;2.30;1.00;;;;;;;19.34;29.38;94247.56;5072538;28;20569;-71
2024/04/06 11:00:15;;;;;;;3.53;0.80;;;;;;;19.48;28.80;94220.88;5072925;28;20417;-71
2024/04/06 11:02:42;;;;;;;25.42;9.48;;;;;;;19.73;28.76;94230.19;5072759;28;20039;-71
2024/04/06 11:05:09;;;;;;;5.28;1.25;;;;;;;19.90;28.02;94231.59;5072268;28;20520;-72
2024/04/06 11:07:34;;;;;;;24.25;13.02;;;;;;;20.01;28.06;94231.75;5072284;28;20036;-72
2024/04/06 11:10:00;;;;;;;3.88;0.90;;;;;;;19.85;28.62;94220.34;5073549;28;20036;-71
2024/04/06 11:12:28;;;;;;;2.92;1.30;;;;;;;20.03;28.43;94222.19;5072533;28;20468;-71
2024/04/06 11:14:59;;;;;;;3.38;1.23;;;;;;;20.09;28.97;94211.84;5072453;28;20033;-71
2024/04/06 11:17:25;;;;;;;5.13;1.73;;;;;;;20.19;27.02;94215.88;5072500;28;20043;-72
2024/04/06 11:19:59;;;;;;;3.05;1.23;;;;;;;19.79;27.79;94219.09;5072233;28;20139;-72
2024/04/06 11:22:25;;;;;;;0.90;0.70;;;;;;;19.84;27.17;94211.47;5072147;28;20016;-71
2024/04/06 11:24:51;;;;;;;2.65;1.17;;;;;;;20.02;27.57;94219.81;5072987;28;20044;-72
2024/04/06 11:27:23;;;;;;;11.50;5.45;;;;;;;19.83;26.59;94209.13;5072447;28;20068;-72